Terminal Aerodrome Forecast
Issued by NWS

Home | Current Version | Previous Version | Text Only | Print | Product List | Glossary On
Versions: 1 2 3 4 5 6 7 8 9 10 11 12 13 14 15 16 17 18 19 20 21 22 23 24 25 26 27 28 29 30 31
000
FTUS46 KPQR 242330
TAFONP
TAF
KONP 242330Z 2500/2524 22012G20KT 5SM -SHRA BR SCT015 OVC040
     FM250100 22012KT P6SM -SHRA SCT015 BKN035 BKN050
     FM250500 19006KT P6SM VCSH SCT020 BKN050
     FM251000 VRB04KT P6SM -SHRA SCT020 BKN035 BKN050
     FM252000 31009KT P6SM VCSH SCT020 BKN060=

USA.gov is the U.S. government's official web portal to all federal, state and local government web resources and services.